ADDS METAR Data INFO
IDs: Format: Raw Decoded Include TAF

Data at: 0904 UTC 20 Oct 2017

KAKR 200854Z AUTO 00000KT 9SM CLR 08/07 A3023 RMK AO2 SLP235 T00830072 53008
KAKR 200842Z AUTO 00000KT 4SM BR CLR 07/06 A3023 RMK AO2 T00720061
KAKR 200832Z AUTO 00000KT 1 1/2SM BR CLR 07/07 A3023 RMK AO2 VIS 1/2V5 T00720067
KAKR 200754Z AUTO 00000KT 6SM BR CLR 07/06 A3022 RMK AO2 SLP233 T00720056
KAKR 200749Z AUTO 00000KT 4SM BR CLR 07/06 A3022 RMK AO2
KAKR 200734Z AUTO 00000KT 1 1/2SM BR CLR 09/08 A3022 RMK AO2 T00890078
KAKR 200654Z AUTO 00000KT 10SM CLR 08/07 A3021 RMK AO2 SLP228 T00830072
KAKR 200554Z AUTO 00000KT 10SM CLR 10/08 A3021 RMK AO2 SLP226 T01000078 10172 20094 51008
KAKR 200454Z AUTO 00000KT 10SM CLR 13/09 A3020 RMK AO2 SLP222 T01280094 402280094
KAKR 200354Z AUTO 00000KT 10SM CLR 13/09 A3019 RMK AO2 SLP221 T01330094
KAKR 200254Z AUTO 00000KT 10SM CLR 14/09 A3018 RMK AO2 SLP217 T01390094 53007
KAKR 200154Z AUTO 23003KT 10SM CLR 14/09 A3017 RMK AO2 SLP216 T01440094
KAKR 200054Z AUTO 23004KT 10SM CLR 16/10 A3016 RMK AO2 SLP212 T01560100
KAKR 192354Z AUTO 24003KT 10SM CLR 17/10 A3016 RMK AO2 SLP211 T01670100 10228 20161 53010
KAKR 192254Z AUTO 21005KT 10SM CLR 18/10 A3014 RMK AO2 SLP204 T01830100
KAKR 192154Z AUTO 23009KT 10SM CLR 22/09 A3013 RMK AO2 SLP199 T02170094
KAKR 192054Z AUTO 22008KT 10SM CLR 23/09 A3012 RMK AO2 SLP198 T02280094 56010
KAKR 191954Z AUTO 22009G18KT 10SM CLR 23/09 A3013 RMK AO2 SLP199 T02280094
KAKR 191854Z AUTO 25012G17KT 10SM CLR 23/10 A3014 RMK AO2 SLP205 T02280100
KAKR 191754Z AUTO 22011G17KT 10SM CLR 21/10 A3016 RMK AO2 SLP210 T02110100 10217 20106 58009
KAKR 191654Z AUTO 23009KT 10SM CLR 20/09 A3017 RMK AO2 SLP214 T02000094
KAKR 191554Z AUTO 22011KT 10SM CLR 18/09 A3018 RMK AO2 SLP218 T01830089
KAKR 191454Z AUTO 22012KT 10SM CLR 17/08 A3018 RMK AO2 SLP219 T01670083 51004
KAKR 191354Z AUTO 21008KT 10SM CLR 14/08 A3018 RMK AO2 SLP219 T01440078
KAKR 191254Z AUTO 21009KT 10SM CLR 12/07 A3018 RMK AO2 SLP219 T01170067
KAKR 191154Z AUTO 22008KT 10SM CLR 11/06 A3017 RMK AO2 SLP216 T01060061 10111 20094 55001
KAKR 191054Z AUTO 20008KT 10SM CLR 11/06 A3017 RMK AO2 SLP213 T01060061
KAKR 190954Z AUTO 20007KT 10SM CLR 11/06 A3017 RMK AO2 SLP216 T01060056
KAKR 190854Z AUTO 21007KT 10SM CLR 11/06 A3018 RMK AO2 SLP216 T01060056 56004
KAKR 190754Z AUTO 20005KT 10SM CLR 10/05 A3018 RMK AO2 SLP216 T01000050
KAKR 190654Z AUTO 20006KT 10SM CLR 10/04 A3018 RMK AO2 SLP217 T01000044
KAKR 190554Z AUTO 21006KT 10SM CLR 11/04 A3019 RMK AO2 SLP221 T01060044 10161 20106 53001
KAKR 190454Z AUTO 20008KT 10SM CLR 12/04 A3017 RMK AO2 SLP214 T01220044 402060050
KAKR 190354Z AUTO 20007KT 10SM CLR 13/04 A3018 RMK AO2 SLP218 T01280039
KAKR 190254Z AUTO 19007KT 10SM CLR 14/04 A3018 RMK AO2 SLP220 T01390039 56008
KAKR 190154Z AUTO 18007KT 10SM CLR 14/04 A3019 RMK AO2 SLP221 T01440044
KAKR 190054Z AUTO 17005KT 10SM CLR 15/05 A3020 RMK AO2 SLP228 T01500050
KAKR 182354Z AUTO 16005KT 10SM CLR 14/06 A3021 RMK AO2 SLP231 T01440056 10206 20133 55003
KAKR 182254Z AUTO 16005KT 10SM CLR 17/06 A3020 RMK AO2 SLP228 T01720061
KAKR 182154Z AUTO 18007KT 10SM CLR 19/07 A3020 RMK AO2 SLP228 T01890067